Time;durP1;ratioP1;P1;durP2;ratioP2;P2;SDS_P1;SDS_P2;PMS_P1;PMS_P2;Temp;Humidity;BMP_temperature;BMP_pressure;BME280_temperature;BME280_humidity;BME280_pressure;Samples;Min_cycle;Max_cycle;Signal;HPM_P1;HPM_P2
2022/05/02 00:01:32;;;;;;;11.85;8.98;;;;;;;;;;4818398;29;20481;-83
2022/05/02 00:03:57;;;;;;;14.80;9.50;;;;;;;;;;4818388;29;20084;-83
2022/05/02 00:06:23;;;;;;;12.65;8.98;;;;;;;;;;4826351;29;20388;-85
2022/05/02 00:08:48;;;;;;;12.63;9.48;;;;;;;;;;4835082;29;20087;-81
2022/05/02 00:11:14;;;;;;;11.70;9.40;;;;;;;;;;4833633;29;20043;-85
2022/05/02 00:13:39;;;;;;;11.30;8.65;;;;;;;;;;4833617;29;20378;-84
2022/05/02 00:16:08;;;;;;;12.63;9.13;;;;;;;;;;4817410;29;20040;-84
2022/05/02 00:18:33;;;;;;;11.48;8.85;;;;;;;;;;4833595;29;20033;-81
2022/05/02 00:20:59;;;;;;;12.52;8.98;;;;;;;;;;4833264;29;20405;-85
2022/05/02 00:23:24;;;;;;;12.60;9.20;;;;;;;;;;4821601;29;20544;-84
2022/05/02 00:25:50;;;;;;;12.70;9.05;;;;;;;;;;4841267;29;20030;-81
2022/05/02 00:28:15;;;;;;;12.23;8.88;;;;;;;;;;4823681;29;20137;-85
2022/05/02 00:30:41;;;;;;;12.48;9.23;;;;;;;;;;4835820;29;20026;-85
2022/05/02 00:33:07;;;;;;;12.63;8.63;;;;;;;;;;4839637;29;20065;-81
2022/05/02 00:35:33;;;;;;;12.85;8.98;;;;;;;;;;4834685;29;20489;-85
2022/05/02 00:37:58;;;;;;;13.05;8.85;;;;;;;;;;4838393;29;20034;-83
2022/05/02 00:40:24;;;;;;;11.82;8.55;;;;;;;;;;4821781;29;20102;-85
2022/05/02 00:42:49;;;;;;;12.27;8.90;;;;;;;;;;4836111;29;20030;-84
2022/05/02 00:45:16;;;;;;;11.48;8.30;;;;;;;;;;4814053;29;20968;-82
2022/05/02 00:47:50;;;;;;;14.07;8.80;;;;;;;;;;4816010;29;22080;-86
2022/05/02 00:50:15;;;;;;;11.98;8.38;;;;;;;;;;4832032;29;20091;-84
2022/05/02 00:52:41;;;;;;;11.75;8.48;;;;;;;;;;4834368;29;20420;-83
2022/05/02 00:55:08;;;;;;;12.48;8.45;;;;;;;;;;4818502;29;20113;-85
2022/05/02 00:57:33;;;;;;;11.88;8.43;;;;;;;;;;4819078;29;20117;-82
2022/05/02 00:59:59;;;;;;;12.10;8.43;;;;;;;;;;4837064;29;20553;-86
2022/05/02 01:02:25;;;;;;;12.52;8.95;;;;;;;;;;4819433;29;20124;-84
2022/05/02 01:04:50;;;;;;;10.98;8.50;;;;;;;;;;4832444;29;20026;-83
2022/05/02 01:07:19;;;;;;;10.93;8.48;;;;;;;;;;4834199;29;20475;-83
2022/05/02 01:09:50;;;;;;;13.90;8.45;;;;;;;;;;4819074;29;20033;-83
2022/05/02 01:12:26;;;;;;;12.13;8.00;;;;;;;;;;4838896;29;20029;-84
2022/05/02 01:14:54;;;;;;;11.02;7.88;;;;;;;;;;4833810;29;20049;-82
2022/05/02 01:17:20;;;;;;;12.25;9.10;;;;;;;;;;4816505;29;20038;-82
2022/05/02 01:19:46;;;;;;;14.32;9.05;;;;;;;;;;4833548;29;20481;-84
2022/05/02 01:22:12;;;;;;;12.02;8.30;;;;;;;;;;4834518;29;20034;-85
2022/05/02 01:24:45;;;;;;;13.30;8.70;;;;;;;;;;4833290;29;20437;-83
2022/05/02 01:27:12;;;;;;;12.07;9.23;;;;;;;;;;4834960;29;20093;-81
2022/05/02 01:29:40;;;;;;;11.50;8.20;;;;;;;;;;4822640;29;20022;-84
2022/05/02 01:32:08;;;;;;;11.55;8.85;;;;;;;;;;4821793;29;20071;-83
2022/05/02 01:34:34;;;;;;;11.30;8.65;;;;;;;;;;4834584;29;20094;-83
2022/05/02 01:37:03;;;;;;;14.13;8.73;;;;;;;;;;4841222;29;20468;-80
2022/05/02 01:39:29;;;;;;;13.48;8.48;;;;;;;;;;4817582;29;20054;-84
2022/05/02 01:41:59;;;;;;;11.82;8.35;;;;;;;;;;4831098;29;20084;-82
2022/05/02 01:44:24;;;;;;;12.32;8.30;;;;;;;;;;4817035;29;20037;-83
2022/05/02 01:46:49;;;;;;;12.57;9.07;;;;;;;;;;4821748;29;20469;-86
2022/05/02 01:49:15;;;;;;;11.55;9.00;;;;;;;;;;4818572;29;20064;-83
2022/05/02 01:51:40;;;;;;;11.70;8.68;;;;;;;;;;4821804;29;20519;-81
2022/05/02 01:54:06;;;;;;;12.38;8.88;;;;;;;;;;4836697;29;20125;-82
2022/05/02 01:56:31;;;;;;;10.95;7.82;;;;;;;;;;4835578;29;20681;-82
2022/05/02 01:58:56;;;;;;;12.88;9.10;;;;;;;;;;4818574;29;20041;-81
2022/05/02 02:01:22;;;;;;;10.25;8.00;;;;;;;;;;4820460;29;20489;-84
2022/05/02 02:03:47;;;;;;;10.90;7.95;;;;;;;;;;4817883;29;20485;-82
2022/05/02 02:06:13;;;;;;;11.90;8.73;;;;;;;;;;4835764;29;20101;-83
2022/05/02 02:08:38;;;;;;;11.10;8.07;;;;;;;;;;4821419;29;20026;-82
2022/05/02 02:11:06;;;;;;;11.32;8.23;;;;;;;;;;4821645;29;20039;-84
2022/05/02 02:13:33;;;;;;;11.77;8.80;;;;;;;;;;4822464;29;20076;-81
2022/05/02 02:15:59;;;;;;;13.43;9.05;;;;;;;;;;4835717;29;20769;-83
2022/05/02 02:18:24;;;;;;;11.32;8.35;;;;;;;;;;4825610;29;21764;-84
2022/05/02 02:20:52;;;;;;;11.40;8.30;;;;;;;;;;4837293;29;20112;-83
2022/05/02 02:23:19;;;;;;;11.20;8.32;;;;;;;;;;4835759;29;20037;-84
2022/05/02 02:25:45;;;;;;;14.38;8.88;;;;;;;;;;4817135;29;20037;-85
2022/05/02 02:28:12;;;;;;;10.75;8.43;;;;;;;;;;4835474;29;20045;-85
2022/05/02 02:30:37;;;;;;;11.73;9.13;;;;;;;;;;4835312;29;20075;-83
2022/05/02 02:33:03;;;;;;;11.40;7.97;;;;;;;;;;4833734;29;20473;-86
2022/05/02 02:35:29;;;;;;;12.02;8.40;;;;;;;;;;4831230;29;20033;-85
2022/05/02 02:37:54;;;;;;;14.40;8.45;;;;;;;;;;4822306;29;20064;-85
2022/05/02 02:40:20;;;;;;;10.43;7.95;;;;;;;;;;4833449;29;20118;-84
2022/05/02 02:42:46;;;;;;;11.85;8.43;;;;;;;;;;4831311;29;20069;-83
2022/05/02 02:45:11;;;;;;;12.35;8.95;;;;;;;;;;4833363;29;20038;-86
2022/05/02 02:47:37;;;;;;;12.27;8.80;;;;;;;;;;4814236;29;20087;-83
2022/05/02 02:50:03;;;;;;;12.02;8.80;;;;;;;;;;4830299;29;20033;-81
2022/05/02 02:52:28;;;;;;;10.88;7.80;;;;;;;;;;4834623;29;20058;-82
2022/05/02 02:54:54;;;;;;;11.43;8.32;;;;;;;;;;4831280;29;20511;-83
2022/05/02 02:57:19;;;;;;;14.23;9.23;;;;;;;;;;4833030;29;20026;-83
2022/05/02 02:59:44;;;;;;;12.82;8.13;;;;;;;;;;4818488;29;20041;-84
2022/05/02 03:02:10;;;;;;;12.20;8.73;;;;;;;;;;4834632;29;20034;-85
2022/05/02 03:07:21;;;;;;;11.13;8.40;;;;;;;;;;4833425;29;20045;-83
2022/05/02 03:09:46;;;;;;;11.45;8.27;;;;;;;;;;4833816;29;20026;-86
2022/05/02 03:12:13;;;;;;;11.82;8.52;;;;;;;;;;4836813;29;20077;-84
2022/05/02 03:14:38;;;;;;;11.88;8.30;;;;;;;;;;4837755;29;20037;-82
2022/05/02 03:17:04;;;;;;;11.80;8.63;;;;;;;;;;4833504;29;20034;-86
2022/05/02 03:19:29;;;;;;;12.30;8.38;;;;;;;;;;4817600;29;20040;-84
2022/05/02 03:21:55;;;;;;;10.80;8.02;;;;;;;;;;4830765;29;20517;-85
2022/05/02 03:24:20;;;;;;;12.95;8.38;;;;;;;;;;4829762;29;20110;-82
2022/05/02 03:26:45;;;;;;;11.50;8.32;;;;;;;;;;4819382;29;20030;-86
2022/05/02 03:29:11;;;;;;;12.75;8.90;;;;;;;;;;4835780;29;20026;-86
2022/05/02 03:31:36;;;;;;;12.35;8.00;;;;;;;;;;4832359;29;20125;-86
2022/05/02 03:34:01;;;;;;;11.60;8.45;;;;;;;;;;4832550;29;20120;-84
2022/05/02 03:36:27;;;;;;;11.45;8.27;;;;;;;;;;4820244;29;20512;-85
2022/05/02 03:38:52;;;;;;;14.25;8.98;;;;;;;;;;4818320;29;20050;-82
2022/05/02 03:41:18;;;;;;;10.57;8.18;;;;;;;;;;4818853;29;20104;-82
2022/05/02 03:43:43;;;;;;;12.18;8.35;;;;;;;;;;4819168;29;20030;-82
2022/05/02 03:46:09;;;;;;;11.15;8.23;;;;;;;;;;4819632;29;20066;-86
2022/05/02 03:48:34;;;;;;;10.88;8.32;;;;;;;;;;4819435;29;20164;-84
2022/05/02 03:51:01;;;;;;;12.07;8.50;;;;;;;;;;4835871;29;20026;-86
2022/05/02 03:53:26;;;;;;;12.07;8.45;;;;;;;;;;4828342;29;20260;-84
2022/05/02 03:55:52;;;;;;;12.07;8.13;;;;;;;;;;4816893;29;20135;-84
2022/05/02 03:58:17;;;;;;;11.88;8.18;;;;;;;;;;4836596;29;20030;-84
2022/05/02 04:00:42;;;;;;;10.98;8.10;;;;;;;;;;4838823;29;20033;-82
2022/05/02 04:03:08;;;;;;;11.27;7.93;;;;;;;;;;4824316;29;20094;-84
2022/05/02 04:05:33;;;;;;;10.88;8.30;;;;;;;;;;4822816;29;20038;-85
2022/05/02 04:07:58;;;;;;;10.48;7.97;;;;;;;;;;4820529;29;20029;-82
2022/05/02 04:10:24;;;;;;;10.88;7.47;;;;;;;;;;4820393;29;20030;-83
2022/05/02 04:12:49;;;;;;;12.00;7.93;;;;;;;;;;4832490;29;20038;-84
2022/05/02 04:15:15;;;;;;;11.70;8.13;;;;;;;;;;4838980;29;20050;-87
2022/05/02 04:17:41;;;;;;;10.82;7.38;;;;;;;;;;4820514;29;20412;-86
2022/05/02 04:20:08;;;;;;;11.52;7.40;;;;;;;;;;4838606;29;20034;-85
2022/05/02 04:22:34;;;;;;;10.35;7.47;;;;;;;;;;4835765;29;20034;-82
2022/05/02 04:25:00;;;;;;;10.65;7.82;;;;;;;;;;4821557;29;20030;-81
2022/05/02 04:27:25;;;;;;;11.18;7.38;;;;;;;;;;4821346;29;20033;-82
2022/05/02 04:29:50;;;;;;;11.27;7.78;;;;;;;;;;4835001;29;20470;-86
2022/05/02 04:32:16;;;;;;;11.63;7.80;;;;;;;;;;4835260;29;20634;-84
2022/05/02 04:34:41;;;;;;;10.25;7.22;;;;;;;;;;4835743;29;20037;-83
2022/05/02 04:37:10;;;;;;;9.65;6.63;;;;;;;;;;4836555;29;20029;-82
2022/05/02 04:39:36;;;;;;;10.55;7.40;;;;;;;;;;4836977;29;20550;-81
2022/05/02 04:42:01;;;;;;;11.65;7.82;;;;;;;;;;4838802;29;20046;-82
2022/05/02 04:44:27;;;;;;;10.55;7.07;;;;;;;;;;4836263;29;20053;-86
2022/05/02 04:46:52;;;;;;;11.10;7.75;;;;;;;;;;4832982;29;20481;-82
2022/05/02 04:49:17;;;;;;;10.95;7.47;;;;;;;;;;4837877;29;20026;-84
2022/05/02 04:51:43;;;;;;;11.27;7.60;;;;;;;;;;4816151;29;20022;-81
2022/05/02 04:54:08;;;;;;;11.40;8.05;;;;;;;;;;4831540;29;20094;-81
2022/05/02 04:56:33;;;;;;;12.48;7.55;;;;;;;;;;4834861;29;20042;-84
2022/05/02 04:58:59;;;;;;;10.82;7.60;;;;;;;;;;4836087;29;20030;-84
2022/05/02 05:01:24;;;;;;;10.77;7.35;;;;;;;;;;4834663;29;20037;-81
2022/05/02 05:03:50;;;;;;;11.02;7.68;;;;;;;;;;4832947;29;20045;-84
2022/05/02 05:06:15;;;;;;;10.68;7.30;;;;;;;;;;4838727;29;20037;-86
2022/05/02 05:08:41;;;;;;;11.98;7.50;;;;;;;;;;4836027;29;20037;-83
2022/05/02 05:11:19;;;;;;;10.77;7.57;;;;;;;;;;4843066;29;20068;-85
2022/05/02 05:17:33;;;;;;;11.63;7.47;;;;;;;;;;4809084;29;20048;-86
2022/05/02 05:20:13;;;;;;;10.52;7.28;;;;;;;;;;4822655;29;20373;-81
2022/05/02 05:22:58;;;;;;;10.10;7.18;;;;;;;;;;4833868;29;20034;-80
2022/05/02 05:25:42;;;;;;;11.02;7.20;;;;;;;;;;4831827;29;20050;-83
2022/05/02 05:28:20;;;;;;;9.90;6.47;;;;;;;;;;4831806;29;20624;-85
2022/05/02 05:30:50;;;;;;;11.98;7.63;;;;;;;;;;4821867;29;20041;-82
2022/05/02 05:33:25;;;;;;;10.65;7.70;;;;;;;;;;4832362;29;20460;-83
2022/05/02 05:36:16;;;;;;;10.20;7.13;;;;;;;;;;4825811;29;20026;-85
2022/05/02 05:38:54;;;;;;;10.70;7.25;;;;;;;;;;4820358;29;20392;-85
2022/05/02 05:41:47;;;;;;;10.05;7.22;;;;;;;;;;4833240;29;20038;-84
2022/05/02 05:44:42;;;;;;;9.80;7.13;;;;;;;;;;4822640;29;20385;-83
2022/05/02 05:47:22;;;;;;;9.75;7.07;;;;;;;;;;4835792;29;20055;-81
2022/05/02 05:50:09;;;;;;;10.55;7.47;;;;;;;;;;4832858;29;20030;-80
2022/05/02 05:53:07;;;;;;;10.95;7.25;;;;;;;;;;4817433;29;20800;-83
2022/05/02 05:56:00;;;;;;;11.18;7.20;;;;;;;;;;4832728;29;20478;-85
2022/05/02 05:58:25;;;;;;;11.25;7.82;;;;;;;;;;4836932;29;20026;-82
2022/05/02 06:01:02;;;;;;;11.05;7.50;;;;;;;;;;4825187;29;20489;-84
2022/05/02 06:03:34;;;;;;;11.65;8.25;;;;;;;;;;4834265;29;20508;-84
2022/05/02 06:08:52;;;;;;;10.85;7.82;;;;;;;;;;4835243;29;20026;-82
2022/05/02 06:11:19;;;;;;;12.70;7.70;;;;;;;;;;4834852;29;20393;-82
2022/05/02 06:13:47;;;;;;;12.77;8.10;;;;;;;;;;4819083;29;20045;-81
2022/05/02 06:19:00;;;;;;;12.18;8.52;;;;;;;;;;4835053;29;20392;-84
2022/05/02 06:21:26;;;;;;;11.63;8.23;;;;;;;;;;4817907;29;20082;-84
2022/05/02 06:23:51;;;;;;;12.38;8.20;;;;;;;;;;4837152;29;20045;-80
2022/05/02 06:26:20;;;;;;;11.50;8.05;;;;;;;;;;4838219;29;20058;-84
2022/05/02 06:28:50;;;;;;;11.90;8.82;;;;;;;;;;4829823;29;20033;-84
2022/05/02 06:31:25;;;;;;;13.27;9.00;;;;;;;;;;4834398;29;20658;-84
2022/05/02 06:33:51;;;;;;;12.23;8.32;;;;;;;;;;4834984;29;20039;-82
2022/05/02 06:36:53;;;;;;;12.70;8.68;;;;;;;;;;4832720;29;20485;-84
2022/05/02 06:40:03;;;;;;;13.23;8.90;;;;;;;;;;4830677;29;20058;-79
2022/05/02 06:42:43;;;;;;;12.35;9.02;;;;;;;;;;4832109;29;20188;-84
2022/05/02 06:45:26;;;;;;;12.25;8.80;;;;;;;;;;4832882;29;20058;-84
2022/05/02 06:48:07;;;;;;;14.57;9.45;;;;;;;;;;4817486;29;20512;-82
2022/05/02 06:50:36;;;;;;;15.57;10.15;;;;;;;;;;4828992;29;20051;-82
2022/05/02 06:53:29;;;;;;;13.65;9.85;;;;;;;;;;4834663;29;20377;-82
2022/05/02 06:56:07;;;;;;;16.13;10.65;;;;;;;;;;4837836;29;20500;-85
2022/05/02 06:58:41;;;;;;;14.18;9.82;;;;;;;;;;4836356;29;20038;-84
2022/05/02 07:01:18;;;;;;;12.20;9.32;;;;;;;;;;4833919;29;20477;-79
2022/05/02 07:04:13;;;;;;;15.38;9.65;;;;;;;;;;4831571;29;20389;-82
2022/05/02 07:07:01;;;;;;;14.45;9.60;;;;;;;;;;4828837;29;20109;-81
2022/05/02 07:09:45;;;;;;;14.30;9.73;;;;;;;;;;4831775;29;20029;-81
2022/05/02 07:12:17;;;;;;;14.57;9.82;;;;;;;;;;4833169;29;20399;-82
2022/05/02 07:15:08;;;;;;;14.63;9.48;;;;;;;;;;4817302;29;20125;-80
2022/05/02 07:17:42;;;;;;;12.77;9.02;;;;;;;;;;4831668;29;20038;-82
2022/05/02 07:20:33;;;;;;;13.93;10.27;;;;;;;;;;4835542;29;20030;-82
2022/05/02 07:23:02;;;;;;;13.23;9.55;;;;;;;;;;4815797;29;20033;-82
2022/05/02 07:25:29;;;;;;;13.30;9.88;;;;;;;;;;4814610;29;20520;-81
2022/05/02 07:28:21;;;;;;;13.07;9.77;;;;;;;;;;4829779;29;21226;-81
2022/05/02 07:30:47;;;;;;;14.68;10.20;;;;;;;;;;4818170;29;20042;-85
2022/05/02 07:33:13;;;;;;;14.90;10.73;;;;;;;;;;4839226;29;20041;-81
2022/05/02 07:35:40;;;;;;;15.13;9.95;;;;;;;;;;4821522;29;20037;-84
2022/05/02 07:38:07;;;;;;;14.48;9.68;;;;;;;;;;4836962;29;20392;-81
2022/05/02 07:40:33;;;;;;;12.88;8.82;;;;;;;;;;4817158;29;20551;-80
2022/05/02 07:43:00;;;;;;;13.75;9.23;;;;;;;;;;4834258;29;20169;-85
2022/05/02 07:45:30;;;;;;;13.02;8.88;;;;;;;;;;4814353;29;20766;-85
2022/05/02 07:48:04;;;;;;;13.50;9.20;;;;;;;;;;4838014;29;20034;-80
2022/05/02 07:50:29;;;;;;;21.85;8.80;;;;;;;;;;4830833;29;20045;-82
2022/05/02 07:52:58;;;;;;;11.90;8.75;;;;;;;;;;4834436;29;20041;-82
2022/05/02 07:55:24;;;;;;;11.05;7.57;;;;;;;;;;4831193;29;20353;-80
2022/05/02 07:57:52;;;;;;;9.85;7.22;;;;;;;;;;4832842;29;20064;-82
2022/05/02 08:00:17;;;;;;;11.32;7.97;;;;;;;;;;4818339;29;20033;-81
2022/05/02 08:02:43;;;;;;;12.20;7.78;;;;;;;;;;4828055;29;20109;-81
2022/05/02 08:05:12;;;;;;;12.25;7.95;;;;;;;;;;4834516;29;20116;-82
2022/05/02 08:07:47;;;;;;;9.13;6.55;;;;;;;;;;4829763;29;20049;-79
2022/05/02 08:11:00;;;;;;;9.65;7.22;;;;;;;;;;4838945;29;20042;-83
2022/05/02 08:13:31;;;;;;;10.43;6.75;;;;;;;;;;4762570;29;20053;-84
2022/05/02 08:16:22;;;;;;;10.45;7.22;;;;;;;;;;4778145;29;20043;-78
2022/05/02 08:19:11;;;;;;;9.50;7.05;;;;;;;;;;4791140;29;20056;-84
2022/05/02 08:27:15;;;;;;;9.98;6.93;;;;;;;;;;4823396;29;20548;-81
2022/05/02 08:27:51;;;;;;;9.57;7.25;;;;;;;;;;4827620;29;20137;-83
2022/05/02 08:30:24;;;;;;;10.35;6.88;;;;;;;;;;4828755;29;20064;-83
2022/05/02 08:32:53;;;;;;;10.40;7.25;;;;;;;;;;4832558;29;20496;-83
2022/05/02 08:35:24;;;;;;;11.05;6.47;;;;;;;;;;4827929;29;20076;-79
2022/05/02 08:38:23;;;;;;;10.32;7.63;;;;;;;;;;4828971;29;20041;-82
2022/05/02 08:41:07;;;;;;;9.95;7.25;;;;;;;;;;4822963;29;20169;-81
2022/05/02 08:44:17;;;;;;;12.25;8.30;;;;;;;;;;4826851;29;20030;-83
2022/05/02 08:46:52;;;;;;;9.20;6.88;;;;;;;;;;4830322;29;20033;-82
2022/05/02 08:49:44;;;;;;;9.57;7.13;;;;;;;;;;4829267;29;20038;-82
2022/05/02 08:52:47;;;;;;;11.75;7.97;;;;;;;;;;4829675;29;20078;-83
2022/05/02 08:55:30;;;;;;;10.40;7.28;;;;;;;;;;4829712;29;20053;-80
2022/05/02 08:58:26;;;;;;;11.20;7.13;;;;;;;;;;4832487;29;20772;-81
2022/05/02 09:01:16;;;;;;;10.75;7.20;;;;;;;;;;4830589;29;20109;-82
2022/05/02 09:03:41;;;;;;;9.55;6.68;;;;;;;;;;4829131;29;20403;-81
2022/05/02 09:06:31;;;;;;;9.60;7.07;;;;;;;;;;4826740;29;20038;-81
2022/05/02 09:09:27;;;;;;;12.15;7.25;;;;;;;;;;4826982;29;20287;-83
2022/05/02 09:12:16;;;;;;;9.60;6.63;;;;;;;;;;4825728;29;20913;-83
2022/05/02 09:15:01;;;;;;;10.73;7.65;;;;;;;;;;4809988;29;20504;-83
2022/05/02 09:17:36;;;;;;;9.98;7.72;;;;;;;;;;4828896;29;20096;-82
2022/05/02 09:20:14;;;;;;;11.48;7.75;;;;;;;;;;4829691;29;20038;-80
2022/05/02 09:23:03;;;;;;;10.43;7.03;;;;;;;;;;4825133;29;22192;-81
2022/05/02 09:26:05;;;;;;;8.52;6.85;;;;;;;;;;4810821;29;20033;-83
2022/05/02 09:28:43;;;;;;;8.38;6.40;;;;;;;;;;4822640;29;20058;-81
2022/05/02 09:31:19;;;;;;;11.88;8.23;;;;;;;;;;4825520;29;20114;-83
2022/05/02 09:33:59;;;;;;;9.75;6.72;;;;;;;;;;4826584;29;20029;-82
2022/05/02 09:36:29;;;;;;;8.85;6.60;;;;;;;;;;4809128;29;20048;-82
2022/05/02 09:39:15;;;;;;;9.73;7.07;;;;;;;;;;4812989;29;20053;-80
2022/05/02 09:42:07;;;;;;;10.70;6.75;;;;;;;;;;4824537;29;20038;-83
2022/05/02 09:50:58;;;;;;;8.30;6.20;;;;;;;;;;4826277;29;20045;-84
2022/05/02 09:54:01;;;;;;;8.98;5.95;;;;;;;;;;4828928;29;20046;-81
2022/05/02 09:56:40;;;;;;;7.80;6.20;;;;;;;;;;4824932;29;20037;-83
2022/05/02 09:59:10;;;;;;;9.68;5.90;;;;;;;;;;4827262;29;20041;-83
2022/05/02 10:01:45;;;;;;;9.63;6.07;;;;;;;;;;4832672;29;20045;-83
2022/05/02 10:04:32;;;;;;;8.23;5.70;;;;;;;;;;4833875;29;20741;-83
2022/05/02 10:07:10;;;;;;;8.25;5.60;;;;;;;;;;4835019;29;20041;-83
2022/05/02 10:09:48;;;;;;;8.80;6.53;;;;;;;;;;4831272;29;20086;-84
2022/05/02 10:12:31;;;;;;;11.30;6.18;;;;;;;;;;4831405;29;20037;-80
2022/05/02 10:14:59;;;;;;;10.10;6.40;;;;;;;;;;4830727;29;20129;-85
2022/05/02 10:18:00;;;;;;;9.50;5.85;;;;;;;;;;4832037;29;22104;-85
2022/05/02 10:20:44;;;;;;;10.55;6.95;;;;;;;;;;4819126;29;20045;-83
2022/05/02 10:23:51;;;;;;;9.85;6.53;;;;;;;;;;4833659;29;20034;-80
2022/05/02 10:26:49;;;;;;;8.60;5.47;;;;;;;;;;4803720;29;20497;-82
2022/05/02 10:29:30;;;;;;;8.65;6.40;;;;;;;;;;4836371;29;20129;-86
2022/05/02 10:32:21;;;;;;;8.68;6.03;;;;;;;;;;4834216;29;20025;-83
2022/05/02 10:34:47;;;;;;;8.05;5.60;;;;;;;;;;4836061;29;20034;-80
2022/05/02 10:37:15;;;;;;;7.90;5.78;;;;;;;;;;4821374;29;21325;-82
2022/05/02 10:39:47;;;;;;;8.20;5.65;;;;;;;;;;4836160;29;20137;-82
2022/05/02 10:42:17;;;;;;;7.53;5.65;;;;;;;;;;4823080;29;20037;-81
2022/05/02 10:44:56;;;;;;;9.05;6.50;;;;;;;;;;4836743;29;20086;-83
2022/05/02 10:47:25;;;;;;;9.38;6.85;;;;;;;;;;4827746;29;20116;-83
2022/05/02 10:50:37;;;;;;;9.73;6.55;;;;;;;;;;4819406;29;20075;-83
2022/05/02 10:57:11;;;;;;;9.02;6.30;;;;;;;;;;4831697;29;20065;-82
2022/05/02 11:03:44;;;;;;;8.88;6.72;;;;;;;;;;4779223;29;20490;-83
2022/05/02 11:10:13;;;;;;;8.20;6.13;;;;;;;;;;4763106;30;20058;-81
2022/05/02 11:13:12;;;;;;;8.68;6.13;;;;;;;;;;4749778;30;20094;-84
2022/05/02 11:16:12;;;;;;;9.02;6.53;;;;;;;;;;4761515;30;20595;-82
2022/05/02 11:22:44;;;;;;;8.63;6.50;;;;;;;;;;4765233;30;20066;-85
2022/05/02 11:26:17;;;;;;;9.27;5.55;;;;;;;;;;4762291;30;20050;-84
2022/05/02 11:29:16;;;;;;;8.07;6.20;;;;;;;;;;4695465;30;20180;-83
2022/05/02 11:32:15;;;;;;;10.05;6.63;;;;;;;;;;4711414;30;20520;-85
2022/05/02 11:38:47;;;;;;;8.30;5.72;;;;;;;;;;4786410;24;20061;-80
2022/05/02 11:41:50;;;;;;;8.30;6.15;;;;;;;;;;4831261;29;20060;-83
2022/05/02 11:44:47;;;;;;;8.25;6.45;;;;;;;;;;4798236;29;20415;-84
2022/05/02 11:47:47;;;;;;;9.05;6.43;;;;;;;;;;4795259;29;20042;-84
2022/05/02 11:53:51;;;;;;;10.23;6.60;;;;;;;;;;4744013;29;20081;-83
2022/05/02 11:56:49;;;;;;;8.20;6.07;;;;;;;;;;4758428;30;20747;-85
2022/05/02 11:59:22;;;;;;;8.57;6.00;;;;;;;;;;4688239;30;20057;-84
2022/05/02 12:02:20;;;;;;;8.07;6.00;;;;;;;;;;4708215;30;20128;-81
2022/05/02 12:05:23;;;;;;;8.50;6.25;;;;;;;;;;4709853;30;20346;-83
2022/05/02 12:08:25;;;;;;;9.93;6.57;;;;;;;;;;4666747;30;20038;-79
2022/05/02 12:11:21;;;;;;;10.70;7.30;;;;;;;;;;4655596;30;20081;-82
2022/05/02 12:13:53;;;;;;;9.32;6.43;;;;;;;;;;4662123;30;20070;-84
2022/05/02 12:16:22;;;;;;;10.00;7.18;;;;;;;;;;4646869;30;20101;-82
2022/05/02 12:19:08;;;;;;;;;;;;;;;;;;;;;
2022/05/02 12:21:52;;;;;;;10.23;5.93;;;;;;;;;;4663537;30;20042;-83
2022/05/02 12:28:08;;;;;;;;;;;;;;;;;;;;;
2022/05/02 12:30:56;;;;;;;9.27;5.47;;;;;;;;;;4679216;30;20046;-82
2022/05/02 12:33:25;;;;;;;8.85;6.25;;;;;;;;;;4663244;30;20049;-83
2022/05/02 12:35:58;;;;;;;8.15;6.05;;;;;;;;;;4667769;30;20726;-83
2022/05/02 12:38:28;;;;;;;8.32;6.13;;;;;;;;;;4856728;24;20108;-83
2022/05/02 12:41:20;;;;;;;;;;;;;;;;;;;;;
2022/05/02 12:44:28;;;;;;;8.45;6.35;;;;;;;;;;4819340;29;20038;-85
2022/05/02 12:50:28;;;;;;;8.10;6.20;;;;;;;;;;4771911;29;20036;-82
2022/05/02 12:53:01;;;;;;;9.07;5.65;;;;;;;;;;4777063;29;20046;-84
2022/05/02 12:55:57;;;;;;;8.07;5.88;;;;;;;;;;4773800;29;20471;-85
2022/05/02 13:02:00;;;;;;;9.13;5.93;;;;;;;;;;4777228;29;20050;-82
2022/05/02 13:08:31;;;;;;;8.43;5.90;;;;;;;;;;4762930;30;20043;-85
2022/05/02 13:11:32;;;;;;;7.97;6.00;;;;;;;;;;4771369;30;20422;-84
2022/05/02 13:14:31;;;;;;;10.32;6.35;;;;;;;;;;4773715;29;20117;-83
2022/05/02 13:20:35;;;;;;;9.48;6.07;;;;;;;;;;4744214;30;20062;-83
2022/05/02 13:23:34;;;;;;;8.88;6.55;;;;;;;;;;4813342;29;20048;-83
2022/05/02 13:30:06;;;;;;;9.40;6.90;;;;;;;;;;4779035;29;20035;-83
2022/05/02 13:33:08;;;;;;;8.77;5.43;;;;;;;;;;4777192;29;20038;-82
2022/05/02 13:35:39;;;;;;;8.20;5.20;;;;;;;;;;4833067;29;20030;-82
2022/05/02 13:41:40;;;;;;;7.60;5.18;;;;;;;;;;4832234;29;20086;-82
2022/05/02 13:44:37;;;;;;;7.65;5.18;;;;;;;;;;4819466;29;20053;-82
2022/05/02 13:51:06;;;;;;;7.38;4.53;;;;;;;;;;4829159;29;20575;-84
2022/05/02 13:54:09;;;;;;;6.72;4.53;;;;;;;;;;4747143;30;20051;-82
2022/05/02 13:57:07;;;;;;;6.60;4.93;;;;;;;;;;4760947;30;20043;-82
2022/05/02 14:09:44;;;;;;;8.43;6.32;;;;;;;;;;4740506;30;20074;-83
2022/05/02 14:12:42;;;;;;;8.80;5.85;;;;;;;;;;4756309;30;20066;-84
2022/05/02 14:15:13;;;;;;;7.50;4.95;;;;;;;;;;4745069;30;20045;-86
2022/05/02 14:18:43;;;;;;;9.40;5.50;;;;;;;;;;4756887;30;20044;-83
2022/05/02 14:21:12;;;;;;;7.68;5.07;;;;;;;;;;4680484;30;20480;-81
2022/05/02 14:24:12;;;;;;;13.23;6.22;;;;;;;;;;4695315;30;20080;-86
2022/05/02 14:27:13;;;;;;;8.15;5.13;;;;;;;;;;4687469;30;20057;-82
2022/05/02 14:29:45;;;;;;;8.02;5.53;;;;;;;;;;4689759;30;20038;-82
2022/05/02 14:32:45;;;;;;;6.50;4.93;;;;;;;;;;4690367;30;20508;-83
2022/05/02 14:38:46;;;;;;;7.47;5.03;;;;;;;;;;4807814;24;20516;-81
2022/05/02 14:44:16;;;;;;;11.15;5.63;;;;;;;;;;4817940;29;20621;-83
2022/05/02 14:56:49;;;;;;;7.05;5.07;;;;;;;;;;4809464;29;20479;-83
2022/05/02 14:59:49;;;;;;;6.72;5.28;;;;;;;;;;4802687;29;20042;-84
2022/05/02 15:02:49;;;;;;;7.85;4.68;;;;;;;;;;4795504;29;20172;-85
2022/05/02 15:05:49;;;;;;;7.32;4.68;;;;;;;;;;4729516;30;20052;-83
2022/05/02 15:08:51;;;;;;;5.70;4.53;;;;;;;;;;4735162;30;20070;-82
2022/05/02 15:15:21;;;;;;;6.50;4.50;;;;;;;;;;4725045;30;20093;-86
2022/05/02 15:25:23;;;;;;;8.43;5.40;;;;;;;;;;4713414;30;20050;-83
2022/05/02 15:46:25;;;;;;;8.88;5.38;;;;;;;;;;4836475;29;20049;-84
2022/05/02 15:52:29;;;;;;;7.75;5.55;;;;;;;;;;4767431;30;20146;-84
2022/05/02 15:55:28;;;;;;;9.30;5.50;;;;;;;;;;4751372;30;20046;-84
2022/05/02 16:01:08;;;;;;;7.57;5.47;;;;;;;;;;4765399;30;20098;-85
2022/05/02 16:04:31;;;;;;;8.93;6.10;;;;;;;;;;4741095;30;20123;-85
2022/05/02 16:10:29;;;;;;;8.10;5.45;;;;;;;;;;4809883;29;20069;-84
2022/05/02 16:10:29;;;;;;;8.90;5.63;;;;;;;;;;4839711;29;20162;-83
2022/05/02 16:13:01;;;;;;;9.45;5.65;;;;;;;;;;4788540;29;20046;-84
2022/05/02 16:16:02;;;;;;;8.23;5.72;;;;;;;;;;4815102;29;20029;-84
2022/05/02 16:19:05;;;;;;;9.57;6.13;;;;;;;;;;4815005;29;20127;-85
2022/05/02 16:22:01;;;;;;;6.78;5.18;;;;;;;;;;4800498;29;20047;-84
2022/05/02 16:25:14;;;;;;;;;;;;;;;;;;;;;
2022/05/02 16:28:28;;;;;;;8.30;5.40;;;;;;;;;;4766454;29;20517;-84
2022/05/02 16:31:33;;;;;;;8.95;5.57;;;;;;;;;;4746311;30;20035;-85
2022/05/02 16:34:03;;;;;;;6.50;4.90;;;;;;;;;;4747755;30;20053;-83
2022/05/02 16:36:34;;;;;;;6.75;4.75;;;;;;;;;;4762311;30;20044;-83
2022/05/02 16:39:03;;;;;;;6.80;5.20;;;;;;;;;;4771684;30;20062;-84
2022/05/02 16:44:35;;;;;;;9.10;5.40;;;;;;;;;;4760715;30;20109;-83
2022/05/02 16:47:21;;;;;;;;;;;;;;;;;;;;;
2022/05/02 16:53:08;;;;;;;8.07;4.93;;;;;;;;;;4770493;29;20218;-83
2022/05/02 16:59:08;;;;;;;7.82;5.00;;;;;;;;;;4752276;30;20065;-83
2022/05/02 17:01:39;;;;;;;8.45;5.30;;;;;;;;;;4765952;30;20160;-82
2022/05/02 17:04:10;;;;;;;8.60;5.10;;;;;;;;;;4763600;30;20727;-84
2022/05/02 17:06:41;;;;;;;6.63;5.03;;;;;;;;;;4766926;30;20391;-82
2022/05/02 17:09:09;;;;;;;7.28;5.00;;;;;;;;;;4762802;30;20522;-83
2022/05/02 17:11:42;;;;;;;7.80;5.53;;;;;;;;;;4762837;30;20047;-84
2022/05/02 17:14:09;;;;;;;7.70;5.15;;;;;;;;;;4748325;30;20035;-83
2022/05/02 17:16:41;;;;;;;7.72;5.47;;;;;;;;;;4797611;29;20504;-82
2022/05/02 17:19:16;;;;;;;8.18;5.55;;;;;;;;;;4818437;29;20037;-84
2022/05/02 17:21:57;;;;;;;8.77;5.50;;;;;;;;;;4819812;29;20113;-84
2022/05/02 17:24:23;;;;;;;8.82;5.13;;;;;;;;;;4826411;29;20038;-84
2022/05/02 17:27:05;;;;;;;7.88;5.63;;;;;;;;;;4816901;29;20635;-84
2022/05/02 17:29:30;;;;;;;6.45;4.70;;;;;;;;;;4818677;29;20034;-84
2022/05/02 17:31:58;;;;;;;8.43;5.10;;;;;;;;;;4830568;29;20370;-82
2022/05/02 17:34:29;;;;;;;8.80;5.13;;;;;;;;;;4824302;29;20980;-85
2022/05/02 17:36:58;;;;;;;7.07;5.07;;;;;;;;;;4820374;29;20123;-85
2022/05/02 17:39:32;;;;;;;7.20;5.10;;;;;;;;;;4833994;29;20129;-83
2022/05/02 17:42:21;;;;;;;8.10;5.18;;;;;;;;;;4824370;29;20038;-83
2022/05/02 17:45:16;;;;;;;8.30;5.03;;;;;;;;;;4806921;29;20062;-82
2022/05/02 17:48:29;;;;;;;;;;;;;;;;;;;;;
2022/05/02 17:51:45;;;;;;;7.90;4.68;;;;;;;;;;4817810;29;20045;-85
2022/05/02 17:54:17;;;;;;;8.07;4.50;;;;;;;;;;4824879;29;20400;-85
2022/05/02 17:56:49;;;;;;;7.20;4.40;;;;;;;;;;4810774;29;20038;-84
2022/05/02 18:02:48;;;;;;;8.02;4.35;;;;;;;;;;4833819;29;20082;-83
2022/05/02 18:05:50;;;;;;;5.45;4.00;;;;;;;;;;4814733;29;20042;-82
2022/05/02 18:08:20;;;;;;;7.82;4.40;;;;;;;;;;4814719;29;20045;-84